![]() |
![]() |
Hora Fecha | Cota_Emb | Caud.G01 | Caud.G02 | Caud.G03 | Caud.G04 | Apert.Ver.1 | Apert.Ver.2 | Apert.Ver.3 | Apert.Ver.4 | Caud.Frey | Caud.Percy | Caud.Rios | |
hh:mm:ss mm/dd/aa | m.s.n.m. | m3/seg | m3/seg | m3/seg | m3/seg | mts | mts | mts | mts | m3/seg | m3/seg | m3/seg | |
00:59:00 08/31/26 | 472.04 | 0.00 | 81.29 | 0.00 | 80.97 | 0.00 | 0.00 | 0.00 | 0.00 | 177.00 | 8.00 | 228.00 | |
01:59:00 08/31/26 | 472.07 | 0.00 | 83.67 | 0.00 | 81.61 | 0.00 | 0.00 | 0.00 | 0.00 | 177.00 | 8.00 | 226.00 | |
02:59:00 08/31/26 | 472.07 | 0.00 | 83.04 | 0.00 | 80.18 | 0.00 | 0.00 | 0.00 | 0.00 | 177.00 | 8.00 | 226.00 | |
03:59:00 08/31/26 | 472.07 | 0.00 | 81.61 | 0.00 | 83.99 | 0.00 | 0.00 | 0.00 | 0.00 | 177.00 | 8.00 | 226.00 | |
04:59:00 08/31/26 | 472.09 | 0.00 | 81.77 | 0.00 | 85.89 | 0.00 | 0.00 | 0.00 | 0.00 | 177.00 | 9.00 | 226.00 | |
05:59:00 08/31/26 | 472.07 | 0.00 | 81.61 | 0.00 | 87.64 | 0.00 | 0.00 | 0.00 | 0.00 | 177.00 | 8.00 | 224.00 | |
06:59:00 08/31/26 | 472.09 | 0.00 | 82.24 | 0.00 | 90.34 | 0.00 | 0.00 | 0.00 | 0.00 | 177.00 | 8.00 | 224.00 | |
07:59:00 08/31/26 | 472.09 | 0.00 | 81.77 | 0.00 | 90.81 | 0.00 | 0.00 | 0.00 | 0.00 | 176.00 | 8.00 | 224.00 | |
08:59:00 08/31/26 | 472.09 | 0.00 | 78.75 | 0.00 | 84.78 | 0.00 | 0.00 | 0.00 | 0.00 | 177.00 | 8.00 | 224.00 | |
09:59:00 08/31/26 | 472.09 | 0.00 | 79.70 | 0.00 | 83.99 | 0.00 | 0.00 | 0.00 | 0.00 | 179.00 | 12.00 | 228.00 | |
10:59:00 08/31/26 | 472.09 | 0.00 | 81.77 | 0.00 | 85.89 | 0.00 | 0.00 | 0.00 | 0.00 | 179.00 | 8.00 | 228.00 | |
11:59:00 08/31/26 | 472.12 | 0.00 | 81.77 | 0.00 | 84.94 | 0.00 | 0.00 | 0.00 | 0.00 | 180.00 | 8.00 | 228.00 | |
12:59:00 08/31/26 | 472.12 | 0.00 | 77.80 | 0.00 | 81.93 | 0.00 | 0.00 | 0.00 | 0.00 | 180.00 | 8.00 | 226.00 | |
13:59:00 08/31/26 | 472.12 | 0.00 | 79.86 | 0.00 | 87.80 | 0.00 | 0.00 | 0.00 | 0.00 | 182.00 | 8.00 | 226.00 | |
14:59:00 08/31/26 | 472.09 | 0.00 | 80.18 | 0.00 | 87.48 | 0.00 | 0.00 | 0.00 | 0.00 | 182.00 | 8.00 | 226.00 | |
15:59:00 08/31/26 | 472.12 | 0.00 | 83.35 | 0.00 | 92.08 | 0.00 | 0.00 | 0.00 | 0.00 | 182.00 | 10.00 | 226.00 | |
16:59:00 08/31/26 | 472.15 | 0.00 | 82.24 | 0.00 | 88.43 | 0.00 | 0.00 | 0.00 | 0.00 | 182.00 | 11.00 | 226.00 | |
17:59:00 08/31/26 | 472.15 | 0.00 | 81.29 | 0.00 | 85.89 | 0.00 | 0.00 | 0.00 | 0.00 | 183.00 | 8.00 | 226.00 | |
18:59:00 08/31/26 | 472.18 | 0.00 | 80.81 | 0.00 | 85.26 | 0.00 | 0.00 | 0.00 | 0.00 | 183.00 | 11.00 | 228.00 | |
19:59:00 08/31/26 | 472.15 | 0.00 | 80.66 | 0.00 | 83.51 | 0.00 | 0.00 | 0.00 | 0.00 | 185.00 | 14.00 | 230.00 | |
20:59:00 08/31/26 | 472.18 | 0.00 | 80.02 | 0.00 | 84.31 | 0.00 | 0.00 | 0.00 | 0.00 | 186.00 | 25.00 | 230.00 | |
21:59:00 08/31/26 | 472.18 | 0.00 | 81.13 | 0.00 | 87.48 | 0.00 | 0.00 | 0.00 | 0.00 | 186.00 | 9.00 | 228.00 | |
22:59:00 08/31/26 | 472.18 | 0.00 | 80.81 | 0.00 | 88.91 | 0.00 | 0.00 | 0.00 | 0.00 | 186.00 | 9.00 | 228.00 | |
23:59:00 08/31/26 | 472.18 | 0.00 | 79.70 | 0.00 | 87.96 | 0.00 | 0.00 | 0.00 | 0.00 | 188.00 | 9.00 | 228.00 | |
Hora Fecha | Temp.Amb. | Temp.Agua | %Humedad | Cota | Ten.Bat. | Evap.Dia | Evap.Mes | Pres.Atm | Lluv.Dia | Lluv.Mes | Dato_no | Vel.Vien. | |
hh:mm:ss mm/dd/aa | grados | grados | % | m.s.n.m. | V | mm | mm | hPa | mm | mm | Valido | km/h | |
00:59:00 08/31/26 | 3.15 | 4.10 | 90.20 | 339.13 | 13.60 | 0.00 | 42.80 | 975.10 | 2.80 | 223.40 | 0.00 | 9.80 | |
01:59:00 08/31/26 | 3.05 | 4.00 | 92.20 | 339.14 | 13.60 | 0.00 | 42.80 | 975.90 | 5.80 | 226.40 | 0.00 | 3.30 | |
02:59:00 08/31/26 | 3.65 | 4.30 | 91.30 | 339.14 | 13.60 | 0.90 | 43.70 | 977.00 | 6.00 | 226.60 | 0.00 | 0.00 | |
03:59:00 08/31/26 | 3.35 | 4.30 | 89.50 | 339.15 | 13.60 | 0.90 | 43.70 | 976.90 | 6.20 | 226.80 | 0.00 | 4.50 | |
04:59:00 08/31/26 | 3.55 | 4.20 | 87.40 | 339.18 | 13.60 | 1.40 | 44.20 | 979.00 | 6.80 | 227.40 | 0.00 | 3.50 | |
05:59:00 08/31/26 | 3.35 | 4.10 | 90.50 | 339.17 | 13.60 | 1.40 | 44.20 | 979.50 | 9.40 | 229.90 | 0.00 | 0.00 | |
06:59:00 08/31/26 | 3.15 | 4.10 | 90.60 | 339.21 | 13.60 | 1.40 | 44.20 | 980.30 | 10.60 | 231.20 | 0.00 | 1.80 | |
07:59:00 08/31/26 | 3.05 | 4.20 | 90.70 | 339.22 | 13.60 | 1.80 | 44.70 | 980.50 | 11.40 | 231.90 | 0.00 | 0.00 | |
08:59:00 08/31/26 | 3.05 | 4.00 | 91.20 | 339.10 | 13.60 | 2.30 | 45.20 | 980.30 | 11.40 | 231.90 | 0.00 | 1.60 | |
09:59:00 08/31/26 | 3.95 | 4.00 | 90.80 | 339.12 | 13.60 | 2.30 | 45.20 | 980.70 | 11.60 | 232.20 | 0.00 | 0.00 | |
10:59:00 08/31/26 | 4.85 | 3.70 | 88.90 | 339.17 | 13.60 | 2.30 | 45.20 | 980.20 | 11.60 | 232.20 | 0.00 | 2.90 | |
11:59:00 08/31/26 | 6.05 | 3.90 | 79.80 | 339.16 | 13.60 | 2.80 | 45.60 | 979.80 | 11.60 | 232.20 | 0.00 | 3.00 | |
12:59:00 08/31/26 | 4.25 | 3.90 | 85.80 | 339.11 | 13.60 | 2.80 | 45.60 | 978.80 | 13.40 | 233.90 | 0.00 | 13.90 | |
13:59:00 08/31/26 | 4.35 | 4.10 | 88.80 | 339.18 | 13.60 | 2.80 | 45.60 | 979.60 | 15.40 | 235.90 | 0.00 | 0.00 | |
14:59:00 08/31/26 | 3.75 | 4.10 | 90.50 | 339.16 | 13.60 | 2.80 | 45.60 | 979.70 | 20.40 | 240.90 | 0.00 | 2.00 | |
15:59:00 08/31/26 | 2.85 | 3.90 | 91.20 | 339.23 | 13.60 | 2.80 | 45.60 | 979.70 | 25.40 | 245.90 | 0.00 | 1.70 | |
16:59:00 08/31/26 | 4.25 | 4.10 | 90.90 | 339.20 | 13.60 | 3.30 | 46.20 | 980.20 | 26.40 | 246.90 | 0.00 | 4.60 | |
17:59:00 08/31/26 | 3.75 | 4.10 | 92.00 | 339.18 | 13.60 | 3.80 | 46.60 | 979.90 | 28.20 | 248.80 | 0.00 | 2.30 | |
18:59:00 08/31/26 | 2.85 | 3.80 | 93.10 | 339.17 | 13.60 | 3.80 | 46.60 | 980.00 | 32.40 | 253.00 | 0.00 | 4.00 | |
19:59:00 08/31/26 | 3.65 | 4.10 | 92.60 | 339.17 | 13.60 | 4.40 | 47.20 | 980.40 | 33.20 | 253.80 | 0.00 | 0.00 | |
20:59:00 08/31/26 | 3.75 | 4.10 | 92.30 | 339.16 | 13.60 | 4.40 | 47.20 | 980.30 | 35.00 | 255.60 | 0.00 | 2.10 | |
21:59:00 08/31/26 | 3.95 | 4.10 | 91.50 | 339.19 | 13.60 | 4.80 | 47.60 | 980.30 | 35.40 | 256.00 | 0.00 | 5.50 | |
22:59:00 08/31/26 | 4.15 | 4.10 | 90.60 | 339.20 | 13.60 | 4.80 | 47.60 | 980.10 | 35.80 | 256.40 | 0.00 | 6.60 | |
23:59:00 08/31/26 | 4.65 | 4.10 | 88.10 | 339.19 | 13.60 | 0.00 | 0.00 | 980.20 | 0.20 | 0.20 | 0.00 | 0.00 | |
Hora Fecha | Temp.Amb. | Dato_no | %Humedad | Cota | Ten.Bat. | Dato_no | Dato_no | Dato_no | Lluv.Dia | Lluv.Mes | Dato_no | Vel.Vien. | |
hh:mm:ss mm/dd/aa | grados | Valido | % | mts | V | Valido | Valido | Valido | mm | mm | Valido | km/h | |
00:59:00 08/31/26 | 3.30 | 0.00 | 90.60 | 4.86 | 12.80 | 0.00 | 0.00 | 0.00 | 3.00 | 151.60 | 0.00 | 5.40 | |
01:59:00 08/31/26 | 3.30 | 0.00 | 87.40 | 4.85 | 12.80 | 0.00 | 0.00 | 0.00 | 3.00 | 151.60 | 0.00 | 5.40 | |
02:59:00 08/31/26 | 3.30 | 0.00 | 87.40 | 4.85 | 12.80 | 0.00 | 0.00 | 0.00 | 3.20 | 151.80 | 0.00 | 9.80 | |
03:59:00 08/31/26 | 3.30 | 0.00 | 87.40 | 4.85 | 12.80 | 0.00 | 0.00 | 0.00 | 3.20 | 151.80 | 0.00 | 9.80 | |
04:59:00 08/31/26 | 2.90 | 0.00 | 89.00 | 4.85 | 12.80 | 0.00 | 0.00 | 0.00 | 3.80 | 152.40 | 0.00 | 2.20 | |
05:59:00 08/31/26 | 2.10 | 0.00 | 95.30 | 4.84 | 12.60 | 0.00 | 0.00 | 0.00 | 6.00 | 154.60 | 0.00 | 5.40 | |
06:59:00 08/31/26 | 2.50 | 0.00 | 91.70 | 4.84 | 12.60 | 0.00 | 0.00 | 0.00 | 6.40 | 155.00 | 0.00 | 0.00 | |
07:59:00 08/31/26 | 2.50 | 0.00 | 91.70 | 4.84 | 12.60 | 0.00 | 0.00 | 0.00 | 6.80 | 155.40 | 0.00 | 6.50 | |
08:59:00 08/31/26 | 2.90 | 0.00 | 89.40 | 4.84 | 12.60 | 0.00 | 0.00 | 0.00 | 6.80 | 155.40 | 0.00 | 8.70 | |
09:59:00 08/31/26 | 2.10 | 0.00 | 92.50 | 4.86 | 13.10 | 0.00 | 0.00 | 0.00 | 7.60 | 156.20 | 0.00 | 2.20 | |
10:59:00 08/31/26 | 2.10 | 0.00 | 92.50 | 4.86 | 13.60 | 0.00 | 0.00 | 0.00 | 7.60 | 156.20 | 0.00 | 0.00 | |
11:59:00 08/31/26 | 3.30 | 0.00 | 92.50 | 4.86 | 13.60 | 0.00 | 0.00 | 0.00 | 7.60 | 156.20 | 0.00 | 0.00 | |
12:59:00 08/31/26 | 4.50 | 0.00 | 86.20 | 4.85 | 13.60 | 0.00 | 0.00 | 0.00 | 7.60 | 156.20 | 0.00 | 0.00 | |
13:59:00 08/31/26 | 4.50 | 0.00 | 86.60 | 4.85 | 13.60 | 0.00 | 0.00 | 0.00 | 8.20 | 156.80 | 0.00 | 0.00 | |
14:59:00 08/31/26 | 4.10 | 0.00 | 86.60 | 4.85 | 13.60 | 0.00 | 0.00 | 0.00 | 8.80 | 157.40 | 0.00 | 8.70 | |
15:59:00 08/31/26 | 3.70 | 0.00 | 86.20 | 4.85 | 13.00 | 0.00 | 0.00 | 0.00 | 12.60 | 161.20 | 0.00 | 6.50 | |
16:59:00 08/31/26 | 2.50 | 0.00 | 93.30 | 4.85 | 13.00 | 0.00 | 0.00 | 0.00 | 12.60 | 161.20 | 0.00 | 5.40 | |
17:59:00 08/31/26 | 2.90 | 0.00 | 94.10 | 4.85 | 12.90 | 0.00 | 0.00 | 0.00 | 14.40 | 163.00 | 0.00 | 2.20 | |
18:59:00 08/31/26 | 3.70 | 0.00 | 92.10 | 4.86 | 12.90 | 0.00 | 0.00 | 0.00 | 14.40 | 163.00 | 0.00 | 1.10 | |
19:59:00 08/31/26 | 2.90 | 0.00 | 93.70 | 4.87 | 12.90 | 0.00 | 0.00 | 0.00 | 17.00 | 165.60 | 0.00 | 2.20 | |
20:59:00 08/31/26 | 2.10 | 0.00 | 96.10 | 4.87 | 12.80 | 0.00 | 0.00 | 0.00 | 19.20 | 167.80 | 0.00 | 0.00 | |
21:59:00 08/31/26 | 2.10 | 0.00 | 96.10 | 4.86 | 12.80 | 0.00 | 0.00 | 0.00 | 20.20 | 168.80 | 0.00 | 0.00 | |
22:59:00 08/31/26 | 2.10 | 0.00 | 96.10 | 4.86 | 12.80 | 0.00 | 0.00 | 0.00 | 20.60 | 169.20 | 0.00 | 1.10 | |
23:59:00 08/31/26 | 2.90 | 0.00 | 94.10 | 4.86 | 12.70 | 0.00 | 0.00 | 0.00 | 20.60 | 169.20 | 0.00 | 2.20 | |
Hora Fecha | Temp.Amb. | Dato_no | %Humedad | Cota | Ten.Bat. | Dato_no | Dato_no | Pres.Atm | Lluv.Dia | Lluv.Mes | Di.Vien | Vel.Vien. | |
hh:mm:ss mm/dd/aa | grados | Valido | % | mts | V | Valido | Valido | hPa | mm | mm | grados | km/h | |
00:59:00 08/31/26 | 2.90 | 0.00 | 84.30 | 4.20 | 12.90 | 0.00 | 0.00 | 986.00 | 5.00 | 225.00 | 0.00 | 1.10 | |
01:59:00 08/31/26 | 2.90 | 0.00 | 84.30 | 4.20 | 12.90 | 0.00 | 0.00 | 986.00 | 5.00 | 225.00 | 0.00 | 1.10 | |
02:59:00 08/31/26 | 2.90 | 0.00 | 84.30 | 4.20 | 12.90 | 0.00 | 0.00 | 986.00 | 5.00 | 225.00 | 0.00 | 1.10 | |
03:59:00 08/31/26 | 2.90 | 0.00 | 84.30 | 4.20 | 12.90 | 0.00 | 0.00 | 986.00 | 5.00 | 225.00 | 0.00 | 1.10 | |
04:59:00 08/31/26 | 2.90 | 0.00 | 84.30 | 4.20 | 12.90 | 0.00 | 0.00 | 986.00 | 5.00 | 225.00 | 0.00 | 6.50 | |
05:59:00 08/31/26 | 2.90 | 0.00 | 84.30 | 4.20 | 12.90 | 0.00 | 0.00 | 986.00 | 5.00 | 225.00 | 0.00 | 6.50 | |
06:59:00 08/31/26 | 2.90 | 0.00 | 84.30 | 4.20 | 12.90 | 0.00 | 0.00 | 986.00 | 5.00 | 225.00 | 0.00 | 6.50 | |
07:59:00 08/31/26 | 2.50 | 0.00 | 82.30 | 4.19 | 12.90 | 0.00 | 0.00 | 988.00 | 7.00 | 227.00 | 0.00 | 4.30 | |
08:59:00 08/31/26 | 2.90 | 0.00 | 78.00 | 4.20 | 12.90 | 0.00 | 0.00 | 988.00 | 8.00 | 228.00 | 0.00 | 8.70 | |
09:59:00 08/31/26 | 2.50 | 0.00 | 84.60 | 4.21 | 12.90 | 0.00 | 0.00 | 989.00 | 9.00 | 229.00 | 0.00 | 7.60 | |
10:59:00 08/31/26 | 2.10 | 0.00 | 85.80 | 4.21 | 12.90 | 0.00 | 0.00 | 990.00 | 10.00 | 230.00 | 0.00 | 0.00 | |
11:59:00 08/31/26 | 2.90 | 0.00 | 83.90 | 4.22 | 12.90 | 0.00 | 0.00 | 990.00 | 10.00 | 230.00 | 0.00 | 3.30 | |
12:59:00 08/31/26 | 2.90 | 0.00 | 83.90 | 4.22 | 12.90 | 0.00 | 0.00 | 989.00 | 12.00 | 232.00 | 0.00 | 5.40 | |
13:59:00 08/31/26 | 3.30 | 0.00 | 84.30 | 4.23 | 12.90 | 0.00 | 0.00 | 991.00 | 12.00 | 232.00 | 0.00 | 5.40 | |
14:59:00 08/31/26 | 1.70 | 0.00 | 87.00 | 4.23 | 12.90 | 0.00 | 0.00 | 991.00 | 18.00 | 238.00 | 0.00 | 2.20 | |
15:59:00 08/31/26 | 2.50 | 0.00 | 87.00 | 4.23 | 12.90 | 0.00 | 0.00 | 990.00 | 19.00 | 239.00 | 0.00 | 0.00 | |
16:59:00 08/31/26 | 2.90 | 0.00 | 87.40 | 4.23 | 12.90 | 0.00 | 0.00 | 989.00 | 20.00 | 240.00 | 0.00 | 5.40 | |
17:59:00 08/31/26 | 2.90 | 0.00 | 84.60 | 4.24 | 12.90 | 0.00 | 0.00 | 989.00 | 23.00 | 243.00 | 0.00 | 0.00 | |
18:59:00 08/31/26 | 2.50 | 0.00 | 86.60 | 4.24 | 12.90 | 0.00 | 0.00 | 990.00 | 26.00 | 246.00 | 0.00 | 2.20 | |
19:59:00 08/31/26 | 2.10 | 0.00 | 87.40 | 4.25 | 12.90 | 0.00 | 0.00 | 990.00 | 29.00 | 249.00 | 0.00 | 1.10 | |
20:59:00 08/31/26 | 0.90 | 0.00 | 88.60 | 4.26 | 12.90 | 0.00 | 0.00 | 992.00 | 32.00 | 252.00 | 0.00 | 3.30 | |
21:59:00 08/31/26 | 1.30 | 0.00 | 89.00 | 4.26 | 12.90 | 0.00 | 0.00 | 992.00 | 34.00 | 254.00 | 0.00 | 2.20 | |
22:59:00 08/31/26 | 2.50 | 0.00 | 85.40 | 4.26 | 12.90 | 0.00 | 0.00 | 993.00 | 35.00 | 255.00 | 0.00 | 10.90 | |
23:59:00 08/31/26 | 2.90 | 0.00 | 83.50 | 4.27 | 12.90 | 0.00 | 0.00 | 993.00 | 35.00 | 255.00 | 0.00 | 3.30 | |
Hora Fecha | Temp.Amb. | Dato_no | %Humedad | Cota | Ten.Bat. | Dato_no | Dato_no | Dato_no | Lluv.Dia | Lluv.Mes | Dato_no | Vel.Vien. | |
hh:mm:ss mm/dd/aa | grados | Valido | % | m.s.n.m. | V | Valido | Valido | Valido | mm | mm | Valido | km/h | |
00:59:00 08/31/26 | 2.90 | 0.00 | 95.70 | 471.96 | 12.90 | 0.00 | 0.00 | 0.00 | 0.00 | 326.00 | 0.00 | 0.00 | |
01:59:00 08/31/26 | 2.90 | 0.00 | 95.70 | 471.96 | 12.90 | 0.00 | 0.00 | 0.00 | 0.00 | 326.00 | 0.00 | 0.00 | |
02:59:00 08/31/26 | 2.90 | 0.00 | 95.70 | 471.98 | 12.90 | 0.00 | 0.00 | 0.00 | 3.00 | 329.00 | 0.00 | 2.20 | |
03:59:00 08/31/26 | 2.90 | 0.00 | 95.70 | 471.98 | 12.90 | 0.00 | 0.00 | 0.00 | 3.00 | 329.00 | 0.00 | 2.20 | |
04:59:00 08/31/26 | 2.90 | 0.00 | 95.70 | 471.98 | 12.90 | 0.00 | 0.00 | 0.00 | 3.00 | 329.00 | 0.00 | 2.20 | |
05:59:00 08/31/26 | 2.10 | 0.00 | 96.50 | 471.98 | 12.80 | 0.00 | 0.00 | 0.00 | 7.00 | 333.00 | 0.00 | 1.10 | |
06:59:00 08/31/26 | 2.10 | 0.00 | 96.50 | 471.98 | 12.80 | 0.00 | 0.00 | 0.00 | 7.00 | 333.00 | 0.00 | 1.10 | |
07:59:00 08/31/26 | 2.10 | 0.00 | 96.50 | 472.02 | 12.80 | 0.00 | 0.00 | 0.00 | 14.00 | 340.00 | 0.00 | 0.00 | |
08:59:00 08/31/26 | 1.70 | 0.00 | 96.50 | 472.02 | 12.80 | 0.00 | 0.00 | 0.00 | 15.00 | 341.00 | 0.00 | 0.00 | |
09:59:00 08/31/26 | 1.70 | 0.00 | 96.50 | 472.02 | 12.80 | 0.00 | 0.00 | 0.00 | 15.00 | 341.00 | 0.00 | 0.00 | |
10:59:00 08/31/26 | 1.70 | 0.00 | 96.50 | 472.02 | 12.80 | 0.00 | 0.00 | 0.00 | 15.00 | 341.00 | 0.00 | 0.00 | |
11:59:00 08/31/26 | 2.10 | 0.00 | 96.90 | 472.02 | 12.70 | 0.00 | 0.00 | 0.00 | 15.00 | 341.00 | 0.00 | 0.00 | |
12:59:00 08/31/26 | 2.10 | 0.00 | 96.90 | 472.02 | 12.70 | 0.00 | 0.00 | 0.00 | 15.00 | 341.00 | 0.00 | 0.00 | |
13:59:00 08/31/26 | 2.10 | 0.00 | 96.90 | 472.02 | 12.70 | 0.00 | 0.00 | 0.00 | 15.00 | 341.00 | 0.00 | 0.00 | |
14:59:00 08/31/26 | 2.10 | 0.00 | 96.90 | 472.02 | 12.70 | 0.00 | 0.00 | 0.00 | 15.00 | 341.00 | 0.00 | 0.00 | |
15:59:00 08/31/26 | 3.30 | 0.00 | 96.10 | 472.03 | 13.80 | 0.00 | 0.00 | 0.00 | 15.00 | 341.00 | 0.00 | 1.10 | |
16:59:00 08/31/26 | 3.70 | 0.00 | 92.50 | 472.03 | 14.20 | 0.00 | 0.00 | 0.00 | 15.00 | 341.00 | 0.00 | 4.30 | |
17:59:00 08/31/26 | 2.50 | 0.00 | 95.70 | 472.05 | 13.40 | 0.00 | 0.00 | 0.00 | 26.00 | 352.00 | 0.00 | 0.00 | |
18:59:00 08/31/26 | 3.30 | 0.00 | 95.30 | 472.07 | 13.00 | 0.00 | 0.00 | 0.00 | 35.00 | 361.00 | 0.00 | 0.00 | |
19:59:00 08/31/26 | 1.70 | 0.00 | 95.30 | 472.07 | 13.00 | 0.00 | 0.00 | 0.00 | 38.00 | 364.00 | 0.00 | 0.00 | |
20:59:00 08/31/26 | 1.30 | 0.00 | 96.50 | 472.08 | 12.90 | 0.00 | 0.00 | 0.00 | 40.00 | 366.00 | 0.00 | 2.20 | |
21:59:00 08/31/26 | 1.70 | 0.00 | 96.90 | 472.09 | 12.90 | 0.00 | 0.00 | 0.00 | 44.00 | 370.00 | 0.00 | 1.10 | |
22:59:00 08/31/26 | 2.10 | 0.00 | 96.90 | 472.10 | 12.90 | 0.00 | 0.00 | 0.00 | 44.00 | 370.00 | 0.00 | 1.10 | |
23:59:00 08/31/26 | 2.10 | 0.00 | 96.90 | 472.10 | 12.80 | 0.00 | 0.00 | 0.00 | 45.00 | 371.00 | 0.00 | 3.30 | |
Hora Fecha | Temp.Amb. | Dato_no | %Humedad | Cota | Ten.Bat. | Dato_no | Dato_no | Dato_no | Lluv.Dia | Lluv.Mes | Dato_no | Vel.Vien. | |
hh:mm:ss mm/dd/aa | grados | Valido | % | mts | V | Valido | Valido | Valido | mm | mm | Valido | km/h | |
00:59:00 08/31/26 | 2.10 | 0.00 | 85.40 | 0.18 | 13.60 | 0.00 | 0.00 | 0.00 | 1.40 | 56.80 | 0.00 | 13.00 | |
01:59:00 08/31/26 | 1.30 | 0.00 | 96.10 | 0.18 | 13.60 | 0.00 | 0.00 | 0.00 | 1.40 | 56.80 | 0.00 | 13.00 | |
02:59:00 08/31/26 | 1.30 | 0.00 | 96.10 | 0.18 | 13.60 | 0.00 | 0.00 | 0.00 | 1.40 | 56.80 | 0.00 | 3.30 | |
03:59:00 08/31/26 | 1.30 | 0.00 | 96.10 | 0.18 | 13.60 | 0.00 | 0.00 | 0.00 | 1.40 | 56.80 | 0.00 | 3.30 | |
04:59:00 08/31/26 | 2.50 | 0.00 | 78.70 | 0.18 | 13.60 | 0.00 | 0.00 | 0.00 | 1.40 | 56.80 | 0.00 | 4.30 | |
05:59:00 08/31/26 | -0.20 | 0.00 | 99.20 | 0.18 | 13.60 | 0.00 | 0.00 | 0.00 | 1.40 | 56.80 | 0.00 | 1.10 | |
06:59:00 08/31/26 | -0.20 | 0.00 | 99.20 | 0.18 | 13.60 | 0.00 | 0.00 | 0.00 | 1.40 | 56.80 | 0.00 | 1.10 | |
07:59:00 08/31/26 | 2.50 | 0.00 | 72.00 | 0.18 | 13.60 | 0.00 | 0.00 | 0.00 | 1.40 | 56.80 | 0.00 | 0.00 | |
08:59:00 08/31/26 | 0.60 | 0.00 | 98.80 | 0.18 | 13.60 | 0.00 | 0.00 | 0.00 | 1.40 | 56.80 | 0.00 | 9.80 | |
09:59:00 08/31/26 | 0.60 | 0.00 | 99.20 | 0.25 | 13.60 | 0.00 | 0.00 | 0.00 | 1.40 | 56.80 | 0.00 | 9.80 | |
10:59:00 08/31/26 | 2.10 | 0.00 | 79.10 | 0.17 | 13.60 | 0.00 | 0.00 | 0.00 | 1.40 | 56.80 | 0.00 | 2.20 | |
11:59:00 08/31/26 | 3.70 | 0.00 | 66.90 | 0.17 | 13.60 | 0.00 | 0.00 | 0.00 | 1.40 | 56.80 | 0.00 | 6.50 | |
12:59:00 08/31/26 | 3.30 | 0.00 | 81.10 | 0.17 | 13.60 | 0.00 | 0.00 | 0.00 | 1.40 | 56.80 | 0.00 | 6.50 | |
13:59:00 08/31/26 | 4.50 | 0.00 | 72.80 | 0.17 | 13.60 | 0.00 | 0.00 | 0.00 | 1.40 | 56.80 | 0.00 | 1.10 | |
14:59:00 08/31/26 | 1.30 | 0.00 | 99.20 | 0.16 | 13.60 | 0.00 | 0.00 | 0.00 | 1.40 | 56.80 | 0.00 | 2.20 | |
15:59:00 08/31/26 | 2.10 | 0.00 | 99.20 | 0.21 | 13.60 | 0.00 | 0.00 | 0.00 | 1.60 | 57.00 | 0.00 | 6.50 | |
16:59:00 08/31/26 | 2.90 | 0.00 | 99.20 | 0.23 | 13.60 | 0.00 | 0.00 | 0.00 | 2.20 | 57.60 | 0.00 | 6.50 | |
17:59:00 08/31/26 | 2.10 | 0.00 | 99.20 | 0.17 | 13.60 | 0.00 | 0.00 | 0.00 | 2.20 | 57.60 | 0.00 | 6.50 | |
18:59:00 08/31/26 | 2.50 | 0.00 | 99.20 | 0.24 | 13.60 | 0.00 | 0.00 | 0.00 | 2.60 | 58.00 | 0.00 | 10.90 | |
19:59:00 08/31/26 | 2.50 | 0.00 | 99.20 | 0.28 | 13.60 | 0.00 | 0.00 | 0.00 | 2.60 | 58.00 | 0.00 | 10.90 | |
20:59:00 08/31/26 | 3.70 | 0.00 | 99.20 | 0.55 | 13.60 | 0.00 | 0.00 | 0.00 | 2.80 | 58.20 | 0.00 | 4.30 | |
21:59:00 08/31/26 | 1.70 | 0.00 | 99.20 | 0.19 | 13.60 | 0.00 | 0.00 | 0.00 | 3.80 | 59.20 | 0.00 | 4.30 | |
22:59:00 08/31/26 | 3.30 | 0.00 | 90.60 | 0.19 | 13.60 | 0.00 | 0.00 | 0.00 | 4.00 | 59.40 | 0.00 | 1.10 | |
23:59:00 08/31/26 | 1.70 | 0.00 | 99.20 | 0.19 | 13.60 | 0.00 | 0.00 | 0.00 | 4.00 | 59.40 | 0.00 | 4.30 | |